Airfield :
LOGIN :

Register | Disclaimer

   EN    FR    IT 

 










Legend :    VFR   Marginal VFR   IFR   Intensive IFR   Very Intensive IFR
Visi :
Ceiling :
>= 8 km
>= 3000ft
5 to 8 km
1000 to 3000 ft
1500m to 5 km
500 to 1000 ft
800 to 1500m
200 to 500 ft
< 800m
< 200 ft
Symbols :   Thunderstorms  Fog  Heavy snow  Heavy precipitations  Wind > 20 kt
SIGMETs :     Misc.  Thunderstorms  Icing  Turbulence  Mountain Waves  Volcanic Ashes






- Airport Elevation : 144 ft
- IATA code : PGF


LFMP - Perpignan

CURRENT METAR :
  • 050630Z AUTO 00000KT 8000 BKN072 08/07 Q1018 TEMPO 2000 BR SCT003 BKN010

EXPIRED METARs :
  • 050600Z AUTO VRB01KT 7000 BKN074 BKN100 08/07 Q1018 TEMPO 2000 BR OVC003
  • 050530Z AUTO VRB02KT 8000 FEW078 08/07 Q1018 TEMPO 2000 BR OVC003
  • 050500Z AUTO 20003KT 8000 SCT100 09/07 Q1018 TEMPO 2000 BR OVC003
  • 050430Z AUTO 28002KT 8000 BKN100 09/07 Q1018 TEMPO 2000 BR OVC003
  • 050400Z AUTO 02002KT 7000 BKN100 09/07 Q1018 TEMPO 2000 BR OVC003

TAF AMD TAF LFMP
Valid from the 05 at 06:00 until the 06 at 03:00 UTC


050608Z 0506/0603 VRB05KT 9999 SCT020
TEMPO 0506/0508 2000 BR SCT003 BKN010
TEMPO 0508/0512 BKN016
BECMG 0518/0521 30010KT
ATIS : +33 4 68 63 75 12



MET'MAP, your aeronautical weather chart ! - Copyright ORBIFLY December 2007 - Disclaimer

ORBIFLY MET'MAP TEAM :

Programming & Development : Alexandra Zaïnal
Concept & original design : Baudouin d'Aumeries
Assistance for programming : Marc-Olivier Méhu
Technical & hardware support : Manuel Goepfert

Contact : metmap@orbifly.com




SOURCES & CREDITS :

   NOAA